createdAt,value
2022-10-16T00:00:38.942Z,3.25
2022-10-16T00:03:26.763Z,4.60
2022-10-16T00:06:16.642Z,3.97
2022-10-16T00:09:13.061Z,4.05
2022-10-16T00:12:11.657Z,4.25
2022-10-16T00:15:12.360Z,3.40
2022-10-16T00:17:57.931Z,3.45
2022-10-16T00:20:47.788Z,3.80
2022-10-16T00:23:43.330Z,3.22
2022-10-16T00:26:30.973Z,4.63
2022-10-16T00:29:18.907Z,3.80
2022-10-16T00:32:25.340Z,4.25
2022-10-16T00:35:11.350Z,3.83
2022-10-16T00:38:03.233Z,3.45
2022-10-16T00:40:56.841Z,4.20
2022-10-16T00:44:03.550Z,4.95
2022-10-16T00:47:01.680Z,3.13
2022-10-16T00:49:57.083Z,2.70
2022-10-16T00:52:54.055Z,2.70
2022-10-16T00:55:42.397Z,3.40
2022-10-16T00:58:49.790Z,3.30
2022-10-16T01:01:41.171Z,2.92
2022-10-16T01:04:33.670Z,2.70
2022-10-16T01:07:56.562Z,2.92
2022-10-16T01:11:14.720Z,2.65
2022-10-16T01:14:06.627Z,2.92
2022-10-16T01:17:02.750Z,2.47
2022-10-16T01:19:58.586Z,2.88
2022-10-16T01:23:16.583Z,3.85
2022-10-16T01:26:21.025Z,3.67
2022-10-16T01:29:14.525Z,2.72
2022-10-16T01:32:20.839Z,3.08
2022-10-16T01:35:31.539Z,3.25
2022-10-16T01:38:38.734Z,3.30
2022-10-16T01:41:46.916Z,4.10
2022-10-16T01:44:37.233Z,3.08
2022-10-16T01:47:26.494Z,4.05
2022-10-16T01:50:15.754Z,3.20
2022-10-16T01:53:04.440Z,3.17
2022-10-16T01:55:51.474Z,3.92
2022-10-16T01:58:42.272Z,3.22
2022-10-16T02:05:12.356Z,3.88
2022-10-16T02:08:03.075Z,3.80
2022-10-16T02:10:50.155Z,3.75
2022-10-16T02:13:51.829Z,4.72
2022-10-16T02:16:46.567Z,2.65
2022-10-16T02:19:32.046Z,3.47
2022-10-16T02:22:41.202Z,3.03
2022-10-16T02:25:34.991Z,4.38
2022-10-16T02:28:28.621Z,3.25
2022-10-16T02:31:21.122Z,2.35
2022-10-16T02:34:07.683Z,2.55
2022-10-16T02:36:54.391Z,2.72
2022-10-16T02:39:41.524Z,3.15
2022-10-16T02:42:35.236Z,2.80
2022-10-16T02:45:33.941Z,2.63
2022-10-16T02:48:25.375Z,3.20
2022-10-16T02:51:10.739Z,2.83
2022-10-16T02:53:56.337Z,2.40
2022-10-16T02:56:41.809Z,2.35
2022-10-16T02:59:33.538Z,2.65
2022-10-16T03:02:19.537Z,2.10
2022-10-16T03:05:09.480Z,2.20
2022-10-16T03:07:54.846Z,3.42
2022-10-16T03:10:40.400Z,3.05
2022-10-16T03:13:25.984Z,2.22
2022-10-16T03:16:11.476Z,2.75
2022-10-16T03:18:56.909Z,2.35
2022-10-16T03:21:42.511Z,2.78
2022-10-16T03:24:45.575Z,4.47
2022-10-16T03:27:33.297Z,2.00
2022-10-16T03:30:18.724Z,2.13
2022-10-16T03:33:04.350Z,2.05
2022-10-16T03:35:54.729Z,2.88
2022-10-16T03:38:43.462Z,2.78
2022-10-16T03:41:28.929Z,2.38
2022-10-16T03:44:23.463Z,2.00
2022-10-16T03:47:09.312Z,2.20
2022-10-16T03:49:59.283Z,3.50
2022-10-16T03:52:45.721Z,2.30
2022-10-16T03:55:39.506Z,2.95
2022-10-16T03:58:29.508Z,2.35
2022-10-16T04:01:14.991Z,2.90
2022-10-16T04:04:00.684Z,3.58
2022-10-16T04:06:50.736Z,4.05
2022-10-16T04:09:36.125Z,2.47
2022-10-16T04:12:21.579Z,3.97
2022-10-16T04:15:07.493Z,2.72
2022-10-16T04:17:53.252Z,2.90
2022-10-16T04:20:39.286Z,3.03
2022-10-16T04:23:24.747Z,2.33
2022-10-16T04:26:11.316Z,3.58
2022-10-16T04:29:15.331Z,2.55
2022-10-16T04:32:07.182Z,3.70
2022-10-16T04:34:52.359Z,3.20
2022-10-16T04:37:37.797Z,5.13
2022-10-16T04:40:23.193Z,2.55
2022-10-16T04:43:13.374Z,2.78
2022-10-16T04:46:10.071Z,2.38
2022-10-16T04:48:56.788Z,2.22
2022-10-16T04:51:42.397Z,3.20
2022-10-16T04:54:27.909Z,2.30
2022-10-16T04:57:13.294Z,3.50
2022-10-16T04:59:58.972Z,3.25
2022-10-16T05:02:44.480Z,3.25
2022-10-16T05:05:29.897Z,2.08
2022-10-16T05:08:16.750Z,2.33
2022-10-16T05:11:02.531Z,3.25
2022-10-16T05:13:49.911Z,3.03
2022-10-16T05:16:44.924Z,2.78
2022-10-16T05:19:40.372Z,3.33
2022-10-16T05:22:25.754Z,2.55
2022-10-16T05:25:18.833Z,2.47
2022-10-16T05:28:04.368Z,2.40
2022-10-16T05:30:54.585Z,2.25
2022-10-16T05:33:40.199Z,2.90
2022-10-16T05:36:27.786Z,3.58
2022-10-16T05:39:15.622Z,2.65
2022-10-16T05:42:00.925Z,2.60
2022-10-16T05:44:46.647Z,2.58
2022-10-16T05:47:31.870Z,2.33
2022-10-16T05:50:17.571Z,2.33
2022-10-16T05:53:02.965Z,2.72
2022-10-16T05:55:53.673Z,3.35
2022-10-16T05:58:41.416Z,3.10
2022-10-16T06:01:26.916Z,2.40
2022-10-16T06:04:12.332Z,2.20
2022-10-16T06:07:01.585Z,2.60
2022-10-16T06:09:53.141Z,2.70
2022-10-16T06:12:38.351Z,3.17
2022-10-16T06:15:23.755Z,2.65
2022-10-16T06:18:10.142Z,3.10
2022-10-16T06:20:56.563Z,3.17
2022-10-16T06:23:41.914Z,3.90
2022-10-16T06:26:30.545Z,2.40
2022-10-16T06:29:15.806Z,2.65
2022-10-16T06:32:01.207Z,3.42
2022-10-16T06:34:47.347Z,2.55
2022-10-16T06:37:33.007Z,3.13
2022-10-16T06:40:18.600Z,3.42
2022-10-16T06:43:04.263Z,2.72
2022-10-16T06:45:57.833Z,2.58
2022-10-16T06:48:43.096Z,2.38
2022-10-16T06:51:28.903Z,2.38
2022-10-16T06:54:14.064Z,2.42
2022-10-16T06:57:00.988Z,2.75
2022-10-16T06:59:47.271Z,3.28
2022-10-16T07:02:33.103Z,2.90
2022-10-16T07:05:18.799Z,2.30
2022-10-16T07:08:06.226Z,2.58
2022-10-16T07:11:00.622Z,2.95
2022-10-16T07:13:50.908Z,2.97
2022-10-16T07:16:39.710Z,2.22
2022-10-16T07:19:28.337Z,2.50
2022-10-16T07:22:15.999Z,2.78
2022-10-16T07:25:01.476Z,3.30
2022-10-16T07:27:46.900Z,2.60
2022-10-16T07:30:36.240Z,3.63
2022-10-16T07:33:22.480Z,2.20
2022-10-16T07:36:09.591Z,3.05
2022-10-16T07:38:58.996Z,2.72
2022-10-16T07:41:45.862Z,2.75
2022-10-16T07:44:31.350Z,2.50
2022-10-16T07:47:16.897Z,3.70
2022-10-16T07:50:01.975Z,3.20
2022-10-16T07:52:47.578Z,3.05
2022-10-16T07:55:33.135Z,2.13
2022-10-16T07:58:18.498Z,2.60
2022-10-16T08:01:12.281Z,2.88
2022-10-16T08:03:57.855Z,2.92
2022-10-16T08:06:43.298Z,4.07
2022-10-16T08:09:28.806Z,2.63
2022-10-16T08:12:14.468Z,2.92
2022-10-16T08:14:59.759Z,2.80
2022-10-16T08:17:45.714Z,3.60
2022-10-16T08:20:32.267Z,2.80
2022-10-16T08:23:17.825Z,2.13
2022-10-16T08:26:08.585Z,2.67
2022-10-16T08:28:54.669Z,2.25
2022-10-16T08:31:40.345Z,2.63
2022-10-16T08:34:26.014Z,4.30
2022-10-16T08:37:13.409Z,2.40
2022-10-16T08:39:58.810Z,2.83
2022-10-16T08:42:44.290Z,2.25
2022-10-16T08:45:50.565Z,2.50
2022-10-16T08:48:35.712Z,2.78
2022-10-16T08:51:43.295Z,3.30
2022-10-16T08:54:41.776Z,2.80
2022-10-16T08:57:30.799Z,2.35
2022-10-16T09:00:17.305Z,2.47
2022-10-16T09:03:25.082Z,2.63
2022-10-16T09:06:39.589Z,2.65
2022-10-16T09:09:43.453Z,3.03
2022-10-16T09:12:37.682Z,2.78
2022-10-16T09:15:31.198Z,2.70
2022-10-16T09:18:16.361Z,2.97
2022-10-16T09:21:05.073Z,2.00
2022-10-16T09:23:51.705Z,2.50
2022-10-16T09:26:37.108Z,2.42
2022-10-16T09:29:24.561Z,2.40
2022-10-16T09:32:18.050Z,2.90
2022-10-16T09:35:03.681Z,2.65
2022-10-16T09:37:52.181Z,1.88
2022-10-16T09:40:39.839Z,2.55
2022-10-16T09:43:36.262Z,2.53
2022-10-16T09:46:30.085Z,2.95
2022-10-16T09:49:25.827Z,2.08
2022-10-16T09:52:16.009Z,2.85
2022-10-16T09:55:13.489Z,2.50
2022-10-16T09:57:58.820Z,2.25
2022-10-16T10:00:52.827Z,2.08
2022-10-16T10:03:43.922Z,2.45
2022-10-16T10:06:33.151Z,2.10
2022-10-16T10:09:26.807Z,2.78
2022-10-16T10:12:31.878Z,2.28
2022-10-16T10:15:24.853Z,1.70
2022-10-16T10:18:20.518Z,2.05
2022-10-16T10:21:07.079Z,2.15
2022-10-16T10:23:58.888Z,2.63
2022-10-16T10:27:07.679Z,2.90
2022-10-16T10:30:04.099Z,1.85
2022-10-16T10:33:04.729Z,2.13
2022-10-16T10:36:20.866Z,2.05
2022-10-16T10:39:18.431Z,2.17
2022-10-16T10:42:21.934Z,2.38
2022-10-16T10:45:29.146Z,1.85
2022-10-16T10:48:14.619Z,2.70
2022-10-16T10:51:18.792Z,2.10
2022-10-16T10:54:21.634Z,1.92
2022-10-16T10:57:29.049Z,2.65
2022-10-16T11:00:24.670Z,2.08
2022-10-16T11:03:31.565Z,3.13
2022-10-16T11:06:25.349Z,2.25
2022-10-16T11:09:13.428Z,2.28
2022-10-16T11:12:11.543Z,2.78
2022-10-16T11:15:02.653Z,2.53
2022-10-16T11:17:53.973Z,2.03
2022-10-16T11:20:45.936Z,2.83
2022-10-16T11:23:41.245Z,1.83
2022-10-16T11:26:34.811Z,2.17
2022-10-16T11:29:31.806Z,2.53
2022-10-16T11:32:29.900Z,2.95
2022-10-16T11:35:33.416Z,2.72
2022-10-16T11:41:45.452Z,2.90
2022-10-16T11:44:41.550Z,2.10
2022-10-16T11:50:55.159Z,2.25
2022-10-16T11:54:08.998Z,2.90
2022-10-16T11:56:59.614Z,2.92
2022-10-16T12:00:08.010Z,2.42
2022-10-16T12:03:30.404Z,2.00
2022-10-16T12:06:34.733Z,2.92
2022-10-16T12:09:31.421Z,2.20
2022-10-16T12:12:36.938Z,2.33
2022-10-16T12:15:40.977Z,1.98
2022-10-16T12:18:32.461Z,2.72
2022-10-16T12:21:20.137Z,2.83
2022-10-16T12:24:06.260Z,2.28
2022-10-16T12:26:53.616Z,2.67
2022-10-16T12:29:44.964Z,2.78
2022-10-16T12:32:48.042Z,2.38
2022-10-16T12:35:45.888Z,2.35
2022-10-16T12:38:34.227Z,3.20
2022-10-16T12:41:34.392Z,2.08
2022-10-16T12:44:29.129Z,2.80
2022-10-16T12:47:51.733Z,2.65
2022-10-16T12:50:40.323Z,3.08
2022-10-16T12:53:27.556Z,2.72
2022-10-16T12:56:24.121Z,3.22
2022-10-16T12:59:31.981Z,3.25
2022-10-16T13:02:28.833Z,3.08
2022-10-16T13:05:52.371Z,3.38
2022-10-16T13:08:59.598Z,2.75
2022-10-16T13:12:06.763Z,2.58
2022-10-16T13:15:31.075Z,2.97
2022-10-16T13:18:25.278Z,4.18
2022-10-16T13:21:28.457Z,2.92
2022-10-16T13:24:32.927Z,3.30
2022-10-16T13:27:35.140Z,2.50
2022-10-16T13:30:24.645Z,3.25
2022-10-16T13:33:36.116Z,3.95
2022-10-16T13:36:21.527Z,2.58
2022-10-16T13:39:14.928Z,3.88
2022-10-16T13:42:06.454Z,3.38
2022-10-16T13:44:56.345Z,5.22
2022-10-16T13:47:41.406Z,3.83
2022-10-16T13:50:27.042Z,3.30
2022-10-16T13:53:16.101Z,3.63
2022-10-16T13:56:04.922Z,2.70
2022-10-16T13:59:04.835Z,3.53
2022-10-16T14:01:52.607Z,3.33
2022-10-16T14:04:40.179Z,3.40
2022-10-16T14:07:28.829Z,3.05
2022-10-16T14:10:33.223Z,2.90
2022-10-16T14:13:21.492Z,3.22
2022-10-16T14:16:17.141Z,3.80
2022-10-16T14:19:07.407Z,3.63
2022-10-16T14:21:53.715Z,3.55
2022-10-16T14:24:39.330Z,2.67
2022-10-16T14:27:35.091Z,2.70
2022-10-16T14:30:23.145Z,2.65
2022-10-16T14:33:26.303Z,2.78
2022-10-16T14:36:13.258Z,3.00
2022-10-16T14:39:18.362Z,3.67
2022-10-16T14:42:03.764Z,2.70
2022-10-16T14:44:50.090Z,3.97
2022-10-16T14:47:37.174Z,4.18
2022-10-16T14:50:23.824Z,4.13
2022-10-16T14:53:15.938Z,2.90
2022-10-16T14:56:08.610Z,3.33
2022-10-16T14:58:54.723Z,3.53
2022-10-16T15:01:40.581Z,4.05
2022-10-16T15:04:26.250Z,2.65
2022-10-16T15:07:11.829Z,2.65
2022-10-16T15:09:58.048Z,3.30
2022-10-16T15:12:43.848Z,3.58
2022-10-16T15:15:39.748Z,2.70
2022-10-16T15:18:25.980Z,2.90
2022-10-16T15:21:31.025Z,2.65
2022-10-16T15:24:20.680Z,2.60
2022-10-16T15:27:07.504Z,2.70
2022-10-16T15:29:53.018Z,2.60
2022-10-16T15:32:39.054Z,2.60
2022-10-16T15:35:24.588Z,2.60
2022-10-16T15:38:14.713Z,2.75
2022-10-16T15:41:00.365Z,3.55
2022-10-16T15:43:49.205Z,3.13
2022-10-16T15:46:35.511Z,2.65
2022-10-16T15:49:21.287Z,2.97
2022-10-16T15:52:07.041Z,3.03
2022-10-16T15:54:54.281Z,3.28
2022-10-16T15:57:42.484Z,2.55
2022-10-16T16:00:28.485Z,5.70
2022-10-16T16:03:14.908Z,2.70
2022-10-16T16:06:06.645Z,2.92
2022-10-16T16:08:52.690Z,3.15
2022-10-16T16:11:39.777Z,2.92
2022-10-16T16:14:27.052Z,2.72
2022-10-16T16:17:12.386Z,2.78
2022-10-16T16:19:57.790Z,2.67
2022-10-16T16:22:43.670Z,2.28
2022-10-16T16:25:29.814Z,2.47
2022-10-16T16:28:15.759Z,2.30
2022-10-16T16:31:01.142Z,2.47
2022-10-16T16:33:47.118Z,2.40
2022-10-16T16:36:33.427Z,2.83
2022-10-16T16:39:20.054Z,2.28
2022-10-16T16:42:07.282Z,2.45
2022-10-16T16:44:52.557Z,2.33
2022-10-16T16:47:39.445Z,2.10
2022-10-16T16:50:24.907Z,2.65
2022-10-16T16:53:10.243Z,3.00
2022-10-16T16:55:55.768Z,2.58
2022-10-16T16:58:41.669Z,2.67
2022-10-16T17:01:28.318Z,2.40
2022-10-16T17:04:16.038Z,2.70
2022-10-16T17:07:01.786Z,2.17
2022-10-16T17:09:47.313Z,2.67
2022-10-16T17:12:33.068Z,2.97
2022-10-16T17:15:18.706Z,2.25
2022-10-16T17:18:04.107Z,2.95
2022-10-16T17:20:49.863Z,2.40
2022-10-16T17:23:36.974Z,2.22
2022-10-16T17:26:22.324Z,2.47
2022-10-16T17:29:12.932Z,2.35
2022-10-16T17:31:59.528Z,2.30
2022-10-16T17:34:44.909Z,2.60
2022-10-16T17:37:30.359Z,3.15
2022-10-16T17:40:15.854Z,4.35
2022-10-16T17:43:02.529Z,4.60
2022-10-16T17:45:48.034Z,4.40
2022-10-16T17:48:41.134Z,5.10
2022-10-16T17:51:29.548Z,4.07
2022-10-16T17:54:15.212Z,3.50
2022-10-16T17:57:00.457Z,3.22
2022-10-16T17:59:46.105Z,3.00
2022-10-16T18:02:31.923Z,2.33
2022-10-16T18:05:17.515Z,2.20
2022-10-16T18:08:02.990Z,2.15
2022-10-16T18:10:50.225Z,3.08
2022-10-16T18:13:35.472Z,3.65
2022-10-16T18:16:21.754Z,2.80
2022-10-16T18:19:07.743Z,2.10
2022-10-16T18:21:55.718Z,2.40
2022-10-16T18:24:41.474Z,2.00
2022-10-16T18:27:27.117Z,2.78
2022-10-16T18:30:13.919Z,4.35
2022-10-16T18:32:59.739Z,3.05
2022-10-16T18:35:45.417Z,3.90
2022-10-16T18:38:31.192Z,3.40
2022-10-16T18:41:16.985Z,3.58
2022-10-16T18:44:02.747Z,2.90
2022-10-16T18:46:48.259Z,3.30
2022-10-16T18:49:33.699Z,2.65
2022-10-16T18:52:19.168Z,2.38
2022-10-16T18:55:05.120Z,2.47
2022-10-16T18:57:50.569Z,3.05
2022-10-16T19:00:35.867Z,2.50
2022-10-16T19:03:21.678Z,2.97
2022-10-16T19:06:12.191Z,2.45
2022-10-16T19:08:57.800Z,3.20
2022-10-16T19:11:43.854Z,2.47
2022-10-16T19:14:30.203Z,2.53
2022-10-16T19:17:15.573Z,2.90
2022-10-16T19:20:00.984Z,2.58
2022-10-16T19:22:58.779Z,3.67
2022-10-16T19:25:44.505Z,2.67
2022-10-16T19:28:30.439Z,2.42
2022-10-16T19:31:18.551Z,3.13
2022-10-16T19:34:06.274Z,2.30
2022-10-16T19:36:53.595Z,2.83
2022-10-16T19:39:38.871Z,2.33
2022-10-16T19:42:24.596Z,2.35
2022-10-16T19:45:11.851Z,2.83
2022-10-16T19:47:57.741Z,2.30
2022-10-16T19:50:46.574Z,2.72
2022-10-16T19:53:32.599Z,3.00
2022-10-16T19:56:21.839Z,2.30
2022-10-16T19:59:09.323Z,2.90
2022-10-16T20:01:54.638Z,2.17
2022-10-16T20:04:40.363Z,2.80
2022-10-16T20:07:28.084Z,2.90
2022-10-16T20:10:15.438Z,1.98
2022-10-16T20:13:00.999Z,2.60
2022-10-16T20:15:46.796Z,2.40
2022-10-16T20:18:32.579Z,2.35
2022-10-16T20:21:21.613Z,3.33
2022-10-16T20:24:07.012Z,3.15
2022-10-16T20:26:52.458Z,2.70
2022-10-16T20:29:38.130Z,2.95
2022-10-16T20:32:24.125Z,2.30
2022-10-16T20:35:10.007Z,2.15
2022-10-16T20:37:55.443Z,3.75
2022-10-16T20:40:43.403Z,2.10
2022-10-16T20:43:28.899Z,2.25
2022-10-16T20:46:16.463Z,2.70
2022-10-16T20:49:11.222Z,2.58
2022-10-16T20:52:02.237Z,2.20
2022-10-16T20:54:47.647Z,2.10
2022-10-16T20:57:33.262Z,2.28
2022-10-16T21:00:19.039Z,2.22
2022-10-16T21:03:04.661Z,2.53
2022-10-16T21:05:50.347Z,1.90
2022-10-16T21:08:37.256Z,1.80
2022-10-16T21:11:27.623Z,1.75
2022-10-16T21:14:13.929Z,1.75
2022-10-16T21:17:01.280Z,1.63
2022-10-16T21:19:46.799Z,1.77
2022-10-16T21:22:32.474Z,1.40
2022-10-16T21:25:18.222Z,1.70
2022-10-16T21:28:03.751Z,1.30
2022-10-16T21:30:49.620Z,1.30
2022-10-16T21:33:35.206Z,1.60
2022-10-16T21:36:27.077Z,1.52
2022-10-16T21:39:16.688Z,1.60
2022-10-16T21:42:02.398Z,1.67
2022-10-16T21:44:47.785Z,1.90
2022-10-16T21:47:34.212Z,1.52
2022-10-16T21:50:19.587Z,1.63
2022-10-16T21:53:06.064Z,2.30
2022-10-16T21:55:51.457Z,1.67
2022-10-16T21:58:36.791Z,2.15
2022-10-16T22:01:25.132Z,2.22
2022-10-16T22:04:12.382Z,2.58
2022-10-16T22:06:57.880Z,2.30
2022-10-16T22:09:43.210Z,2.25
2022-10-16T22:12:29.662Z,3.10
2022-10-16T22:15:15.024Z,3.33
2022-10-16T22:18:01.410Z,4.18
2022-10-16T22:20:46.960Z,3.05
2022-10-16T22:23:32.510Z,3.30
2022-10-16T22:26:18.032Z,3.60
2022-10-16T22:29:03.927Z,4.05
2022-10-16T22:31:53.451Z,3.90
2022-10-16T22:34:39.054Z,4.65
2022-10-16T22:37:24.747Z,5.00
2022-10-16T22:40:11.388Z,5.28
2022-10-16T22:42:57.898Z,5.18
2022-10-16T22:45:43.003Z,4.30
2022-10-16T22:48:28.662Z,4.15
2022-10-16T22:51:17.272Z,4.53
2022-10-16T22:54:03.271Z,5.50
2022-10-16T22:56:48.836Z,4.90
2022-10-16T22:59:34.038Z,5.70
2022-10-16T23:02:19.493Z,5.22
2022-10-16T23:05:08.380Z,6.70
2022-10-16T23:07:53.502Z,6.00
2022-10-16T23:10:40.770Z,6.28
2022-10-16T23:13:26.349Z,6.38
2022-10-16T23:16:13.066Z,6.13
2022-10-16T23:18:58.744Z,6.60
2022-10-16T23:21:44.259Z,7.95
2022-10-16T23:24:31.341Z,6.43
2022-10-16T23:27:16.946Z,5.95
2022-10-16T23:30:02.300Z,5.72
2022-10-16T23:32:47.918Z,5.70
2022-10-16T23:35:33.431Z,6.55
2022-10-16T23:38:18.881Z,5.72
2022-10-16T23:41:04.341Z,5.68
2022-10-16T23:43:51.313Z,6.20
2022-10-16T23:46:36.942Z,5.80
2022-10-16T23:49:22.374Z,5.30
2022-10-16T23:52:07.874Z,5.47
2022-10-16T23:54:53.448Z,4.38
2022-10-16T23:57:38.934Z,4.90
